sensor_id;sensor_type;location;lat;lon;timestamp;temperature;humidity
19085;DHT22;9675;51.538;6.728;2024-03-25T00:01:06;7.70;99.90
19085;DHT22;9675;51.538;6.728;2024-03-25T00:03:33;7.60;99.90
19085;DHT22;9675;51.538;6.728;2024-03-25T00:05:59;7.60;99.90
19085;DHT22;9675;51.538;6.728;2024-03-25T00:08:27;7.60;99.90
19085;DHT22;9675;51.538;6.728;2024-03-25T00:10:53;7.60;99.90
19085;DHT22;9675;51.538;6.728;2024-03-25T00:13:22;7.60;99.90
19085;DHT22;9675;51.538;6.728;2024-03-25T00:15:48;7.60;99.90
19085;DHT22;9675;51.538;6.728;2024-03-25T00:18:15;7.60;99.90
19085;DHT22;9675;51.538;6.728;2024-03-25T00:20:41;7.60;99.90
19085;DHT22;9675;51.538;6.728;2024-03-25T00:23:08;7.50;99.90
19085;DHT22;9675;51.538;6.728;2024-03-25T00:25:34;7.60;99.90
19085;DHT22;9675;51.538;6.728;2024-03-25T00:28:01;7.50;99.90
19085;DHT22;9675;51.538;6.728;2024-03-25T00:30:29;7.50;99.90
19085;DHT22;9675;51.538;6.728;2024-03-25T00:32:56;7.50;99.90
19085;DHT22;9675;51.538;6.728;2024-03-25T00:35:22;7.50;99.90
19085;DHT22;9675;51.538;6.728;2024-03-25T00:37:49;7.50;99.90
19085;DHT22;9675;51.538;6.728;2024-03-25T00:40:16;7.50;99.90
19085;DHT22;9675;51.538;6.728;2024-03-25T00:42:43;7.50;99.90
19085;DHT22;9675;51.538;6.728;2024-03-25T00:45:09;7.50;99.90
19085;DHT22;9675;51.538;6.728;2024-03-25T00:47:37;7.50;99.90
19085;DHT22;9675;51.538;6.728;2024-03-25T00:50:05;7.50;99.90
19085;DHT22;9675;51.538;6.728;2024-03-25T00:52:34;7.50;99.90
19085;DHT22;9675;51.538;6.728;2024-03-25T00:55:00;7.40;99.90
19085;DHT22;9675;51.538;6.728;2024-03-25T00:57:27;7.40;99.90
19085;DHT22;9675;51.538;6.728;2024-03-25T00:59:55;7.40;99.90
19085;DHT22;9675;51.538;6.728;2024-03-25T01:02:22;7.40;99.90
19085;DHT22;9675;51.538;6.728;2024-03-25T01:04:49;7.40;99.90
19085;DHT22;9675;51.538;6.728;2024-03-25T01:07:16;7.40;99.90
19085;DHT22;9675;51.538;6.728;2024-03-25T01:09:43;7.40;99.90
19085;DHT22;9675;51.538;6.728;2024-03-25T01:12:10;7.30;99.90
19085;DHT22;9675;51.538;6.728;2024-03-25T01:14:36;7.30;99.90
19085;DHT22;9675;51.538;6.728;2024-03-25T01:17:03;7.30;99.90
19085;DHT22;9675;51.538;6.728;2024-03-25T01:19:29;7.20;99.90
19085;DHT22;9675;51.538;6.728;2024-03-25T01:21:58;7.20;99.90
19085;DHT22;9675;51.538;6.728;2024-03-25T01:24:24;7.20;99.90
19085;DHT22;9675;51.538;6.728;2024-03-25T01:26:51;7.20;99.90
19085;DHT22;9675;51.538;6.728;2024-03-25T01:29:17;7.20;99.90
19085;DHT22;9675;51.538;6.728;2024-03-25T01:31:45;7.20;99.90
19085;DHT22;9675;51.538;6.728;2024-03-25T01:34:11;7.20;99.90
19085;DHT22;9675;51.538;6.728;2024-03-25T01:36:38;7.20;99.90
19085;DHT22;9675;51.538;6.728;2024-03-25T01:39:06;7.10;99.90
19085;DHT22;9675;51.538;6.728;2024-03-25T01:41:33;7.20;99.90
19085;DHT22;9675;51.538;6.728;2024-03-25T01:43:59;7.10;99.90
19085;DHT22;9675;51.538;6.728;2024-03-25T01:46:27;7.10;99.90
19085;DHT22;9675;51.538;6.728;2024-03-25T01:48:54;7.10;99.90
19085;DHT22;9675;51.538;6.728;2024-03-25T01:51:24;7.10;99.90
19085;DHT22;9675;51.538;6.728;2024-03-25T01:53:52;7.10;99.90
19085;DHT22;9675;51.538;6.728;2024-03-25T01:56:23;7.10;99.90
19085;DHT22;9675;51.538;6.728;2024-03-25T01:58:50;7.00;99.90
19085;DHT22;9675;51.538;6.728;2024-03-25T02:01:18;7.00;99.90
19085;DHT22;9675;51.538;6.728;2024-03-25T02:03:48;7.00;99.90
19085;DHT22;9675;51.538;6.728;2024-03-25T02:06:17;7.10;99.90
19085;DHT22;9675;51.538;6.728;2024-03-25T02:08:43;7.00;99.90
19085;DHT22;9675;51.538;6.728;2024-03-25T02:11:11;7.00;99.90
19085;DHT22;9675;51.538;6.728;2024-03-25T02:13:39;7.00;99.90
19085;DHT22;9675;51.538;6.728;2024-03-25T02:16:07;6.90;99.90
19085;DHT22;9675;51.538;6.728;2024-03-25T02:18:33;6.80;99.90
19085;DHT22;9675;51.538;6.728;2024-03-25T02:21:01;6.80;99.90
19085;DHT22;9675;51.538;6.728;2024-03-25T02:23:28;6.80;99.90
19085;DHT22;9675;51.538;6.728;2024-03-25T02:25:56;6.80;99.90
19085;DHT22;9675;51.538;6.728;2024-03-25T02:28:23;6.80;99.90
19085;DHT22;9675;51.538;6.728;2024-03-25T02:30:50;6.80;99.90
19085;DHT22;9675;51.538;6.728;2024-03-25T02:33:16;6.80;99.90
19085;DHT22;9675;51.538;6.728;2024-03-25T02:35:43;6.70;99.90
19085;DHT22;9675;51.538;6.728;2024-03-25T02:38:10;6.70;99.90
19085;DHT22;9675;51.538;6.728;2024-03-25T02:40:38;6.70;99.90
19085;DHT22;9675;51.538;6.728;2024-03-25T02:43:06;6.80;99.90
19085;DHT22;9675;51.538;6.728;2024-03-25T02:45:33;6.70;99.90
19085;DHT22;9675;51.538;6.728;2024-03-25T02:48:00;6.70;99.90
19085;DHT22;9675;51.538;6.728;2024-03-25T02:50:27;6.60;99.90
19085;DHT22;9675;51.538;6.728;2024-03-25T02:52:53;6.60;99.90
19085;DHT22;9675;51.538;6.728;2024-03-25T02:55:20;6.60;99.90
19085;DHT22;9675;51.538;6.728;2024-03-25T02:57:46;6.60;99.90
19085;DHT22;9675;51.538;6.728;2024-03-25T03:00:15;6.50;99.90
19085;DHT22;9675;51.538;6.728;2024-03-25T03:02:41;6.60;99.90
19085;DHT22;9675;51.538;6.728;2024-03-25T03:05:08;6.50;99.90
19085;DHT22;9675;51.538;6.728;2024-03-25T03:07:34;6.50;99.90
19085;DHT22;9675;51.538;6.728;2024-03-25T03:10:01;6.50;99.90
19085;DHT22;9675;51.538;6.728;2024-03-25T03:12:27;6.50;99.90
19085;DHT22;9675;51.538;6.728;2024-03-25T03:14:54;6.60;99.90
19085;DHT22;9675;51.538;6.728;2024-03-25T03:17:22;6.50;99.90
19085;DHT22;9675;51.538;6.728;2024-03-25T03:19:49;6.50;99.90
19085;DHT22;9675;51.538;6.728;2024-03-25T03:22:15;6.50;99.90
19085;DHT22;9675;51.538;6.728;2024-03-25T03:24:42;6.50;99.90
19085;DHT22;9675;51.538;6.728;2024-03-25T03:27:08;6.40;99.90
19085;DHT22;9675;51.538;6.728;2024-03-25T03:29:36;6.50;99.90
19085;DHT22;9675;51.538;6.728;2024-03-25T03:32:02;6.50;99.90
19085;DHT22;9675;51.538;6.728;2024-03-25T03:34:30;6.50;99.90
19085;DHT22;9675;51.538;6.728;2024-03-25T03:36:56;6.50;99.90
19085;DHT22;9675;51.538;6.728;2024-03-25T03:39:23;6.50;99.90
19085;DHT22;9675;51.538;6.728;2024-03-25T03:41:49;6.50;99.90
19085;DHT22;9675;51.538;6.728;2024-03-25T03:44:16;6.40;99.90
19085;DHT22;9675;51.538;6.728;2024-03-25T03:46:42;6.50;99.90
19085;DHT22;9675;51.538;6.728;2024-03-25T03:49:09;6.50;99.90
19085;DHT22;9675;51.538;6.728;2024-03-25T03:51:37;6.50;99.90
19085;DHT22;9675;51.538;6.728;2024-03-25T03:54:04;6.50;99.90
19085;DHT22;9675;51.538;6.728;2024-03-25T03:56:30;6.50;99.90
19085;DHT22;9675;51.538;6.728;2024-03-25T03:58:57;6.50;99.90
19085;DHT22;9675;51.538;6.728;2024-03-25T04:01:23;6.50;99.90
19085;DHT22;9675;51.538;6.728;2024-03-25T04:03:50;6.50;99.90
19085;DHT22;9675;51.538;6.728;2024-03-25T04:06:17;6.50;99.90
19085;DHT22;9675;51.538;6.728;2024-03-25T04:08:45;6.40;99.90
19085;DHT22;9675;51.538;6.728;2024-03-25T04:11:11;6.50;99.90
19085;DHT22;9675;51.538;6.728;2024-03-25T04:13:38;6.50;99.90
19085;DHT22;9675;51.538;6.728;2024-03-25T04:16:05;6.50;99.90
19085;DHT22;9675;51.538;6.728;2024-03-25T04:18:33;6.40;99.90
19085;DHT22;9675;51.538;6.728;2024-03-25T04:21:00;6.40;99.90
19085;DHT22;9675;51.538;6.728;2024-03-25T04:23:27;6.40;99.90
19085;DHT22;9675;51.538;6.728;2024-03-25T04:25:55;6.50;99.90
19085;DHT22;9675;51.538;6.728;2024-03-25T04:28:22;6.50;99.90
19085;DHT22;9675;51.538;6.728;2024-03-25T04:30:52;6.50;99.90
19085;DHT22;9675;51.538;6.728;2024-03-25T04:33:19;6.50;99.90
19085;DHT22;9675;51.538;6.728;2024-03-25T04:35:46;6.60;99.90
19085;DHT22;9675;51.538;6.728;2024-03-25T04:38:15;6.60;99.90
19085;DHT22;9675;51.538;6.728;2024-03-25T04:40:42;6.60;99.90
19085;DHT22;9675;51.538;6.728;2024-03-25T04:43:09;6.60;99.90
19085;DHT22;9675;51.538;6.728;2024-03-25T04:45:35;6.50;99.90
19085;DHT22;9675;51.538;6.728;2024-03-25T04:48:02;6.50;99.90
19085;DHT22;9675;51.538;6.728;2024-03-25T04:50:28;6.40;99.90
19085;DHT22;9675;51.538;6.728;2024-03-25T04:52:56;6.40;99.90
19085;DHT22;9675;51.538;6.728;2024-03-25T04:55:22;6.50;99.90
19085;DHT22;9675;51.538;6.728;2024-03-25T04:57:48;6.50;99.90
19085;DHT22;9675;51.538;6.728;2024-03-25T05:00:16;6.50;99.90
19085;DHT22;9675;51.538;6.728;2024-03-25T05:02:43;6.40;99.90
19085;DHT22;9675;51.538;6.728;2024-03-25T05:05:09;6.40;99.90
19085;DHT22;9675;51.538;6.728;2024-03-25T05:07:35;6.30;99.90
19085;DHT22;9675;51.538;6.728;2024-03-25T05:10:02;6.20;99.90
19085;DHT22;9675;51.538;6.728;2024-03-25T05:12:28;6.20;99.90
19085;DHT22;9675;51.538;6.728;2024-03-25T05:14:54;6.20;99.90
19085;DHT22;9675;51.538;6.728;2024-03-25T05:17:21;6.10;99.90
19085;DHT22;9675;51.538;6.728;2024-03-25T05:19:48;6.10;99.90
19085;DHT22;9675;51.538;6.728;2024-03-25T05:22:14;6.10;99.90
19085;DHT22;9675;51.538;6.728;2024-03-25T05:24:40;6.10;99.90
19085;DHT22;9675;51.538;6.728;2024-03-25T05:27:06;6.10;99.90
19085;DHT22;9675;51.538;6.728;2024-03-25T05:29:32;6.10;99.90
19085;DHT22;9675;51.538;6.728;2024-03-25T05:31:59;6.20;99.90
19085;DHT22;9675;51.538;6.728;2024-03-25T05:34:28;6.20;99.90
19085;DHT22;9675;51.538;6.728;2024-03-25T05:36:54;6.20;99.90
19085;DHT22;9675;51.538;6.728;2024-03-25T05:39:21;6.20;99.90
19085;DHT22;9675;51.538;6.728;2024-03-25T05:41:48;6.20;99.90
19085;DHT22;9675;51.538;6.728;2024-03-25T05:44:14;6.20;99.90
19085;DHT22;9675;51.538;6.728;2024-03-25T05:46:40;6.10;99.90
19085;DHT22;9675;51.538;6.728;2024-03-25T05:49:07;6.10;99.90
19085;DHT22;9675;51.538;6.728;2024-03-25T05:51:34;6.00;99.90
19085;DHT22;9675;51.538;6.728;2024-03-25T05:54:01;6.00;99.90
19085;DHT22;9675;51.538;6.728;2024-03-25T05:56:27;6.00;99.90
19085;DHT22;9675;51.538;6.728;2024-03-25T05:58:54;6.10;99.90
19085;DHT22;9675;51.538;6.728;2024-03-25T06:01:20;6.00;99.90
19085;DHT22;9675;51.538;6.728;2024-03-25T06:03:46;6.00;99.90
19085;DHT22;9675;51.538;6.728;2024-03-25T06:06:12;6.00;99.90
19085;DHT22;9675;51.538;6.728;2024-03-25T06:08:39;6.00;99.90
19085;DHT22;9675;51.538;6.728;2024-03-25T06:11:05;5.90;99.90
19085;DHT22;9675;51.538;6.728;2024-03-25T06:13:32;5.90;99.90
19085;DHT22;9675;51.538;6.728;2024-03-25T06:15:58;5.90;99.90
19085;DHT22;9675;51.538;6.728;2024-03-25T06:18:24;5.90;99.90
19085;DHT22;9675;51.538;6.728;2024-03-25T06:20:51;5.80;99.90
19085;DHT22;9675;51.538;6.728;2024-03-25T06:23:23;5.80;99.90
19085;DHT22;9675;51.538;6.728;2024-03-25T06:25:53;5.80;99.90
19085;DHT22;9675;51.538;6.728;2024-03-25T06:28:20;5.80;99.90
19085;DHT22;9675;51.538;6.728;2024-03-25T06:30:48;5.80;99.90
19085;DHT22;9675;51.538;6.728;2024-03-25T06:33:33;5.70;99.90
19085;DHT22;9675;51.538;6.728;2024-03-25T06:36:23;5.70;99.90
19085;DHT22;9675;51.538;6.728;2024-03-25T06:38:50;5.70;99.90
19085;DHT22;9675;51.538;6.728;2024-03-25T06:41:17;5.70;99.90
19085;DHT22;9675;51.538;6.728;2024-03-25T06:43:43;5.70;99.90
19085;DHT22;9675;51.538;6.728;2024-03-25T06:46:09;5.70;99.90
19085;DHT22;9675;51.538;6.728;2024-03-25T06:48:35;5.70;99.90
19085;DHT22;9675;51.538;6.728;2024-03-25T06:51:02;5.70;99.90
19085;DHT22;9675;51.538;6.728;2024-03-25T06:53:29;5.80;99.90
19085;DHT22;9675;51.538;6.728;2024-03-25T06:55:57;5.80;99.90
19085;DHT22;9675;51.538;6.728;2024-03-25T06:58:26;5.80;99.90
19085;DHT22;9675;51.538;6.728;2024-03-25T07:00:54;5.90;99.90
19085;DHT22;9675;51.538;6.728;2024-03-25T07:03:21;5.80;99.90
19085;DHT22;9675;51.538;6.728;2024-03-25T07:05:50;5.80;99.90
19085;DHT22;9675;51.538;6.728;2024-03-25T07:08:17;5.90;99.90
19085;DHT22;9675;51.538;6.728;2024-03-25T07:10:43;5.90;99.90
19085;DHT22;9675;51.538;6.728;2024-03-25T07:13:10;5.90;99.90
19085;DHT22;9675;51.538;6.728;2024-03-25T07:15:39;5.90;99.90
19085;DHT22;9675;51.538;6.728;2024-03-25T07:18:05;5.90;99.90
19085;DHT22;9675;51.538;6.728;2024-03-25T07:20:32;5.90;99.90
19085;DHT22;9675;51.538;6.728;2024-03-25T07:22:58;6.00;99.90
19085;DHT22;9675;51.538;6.728;2024-03-25T07:25:25;6.00;99.90
19085;DHT22;9675;51.538;6.728;2024-03-25T07:27:51;6.00;99.90
19085;DHT22;9675;51.538;6.728;2024-03-25T07:30:18;6.00;99.90
19085;DHT22;9675;51.538;6.728;2024-03-25T07:32:46;6.00;99.90
19085;DHT22;9675;51.538;6.728;2024-03-25T07:35:12;6.10;99.90
19085;DHT22;9675;51.538;6.728;2024-03-25T07:37:38;6.10;99.90
19085;DHT22;9675;51.538;6.728;2024-03-25T07:40:05;6.10;99.90
19085;DHT22;9675;51.538;6.728;2024-03-25T07:42:32;6.20;99.90
19085;DHT22;9675;51.538;6.728;2024-03-25T07:44:58;6.20;99.90
19085;DHT22;9675;51.538;6.728;2024-03-25T07:47:25;6.20;99.90
19085;DHT22;9675;51.538;6.728;2024-03-25T07:49:52;6.30;99.90
19085;DHT22;9675;51.538;6.728;2024-03-25T07:52:18;6.50;99.90
19085;DHT22;9675;51.538;6.728;2024-03-25T07:54:44;6.40;99.90
19085;DHT22;9675;51.538;6.728;2024-03-25T07:57:10;6.40;99.90
19085;DHT22;9675;51.538;6.728;2024-03-25T07:59:36;6.50;99.90
19085;DHT22;9675;51.538;6.728;2024-03-25T08:02:03;6.60;99.90
19085;DHT22;9675;51.538;6.728;2024-03-25T08:04:29;6.60;99.90
19085;DHT22;9675;51.538;6.728;2024-03-25T08:06:56;6.70;99.90
19085;DHT22;9675;51.538;6.728;2024-03-25T08:09:22;6.80;99.90
19085;DHT22;9675;51.538;6.728;2024-03-25T08:11:48;6.80;99.90
19085;DHT22;9675;51.538;6.728;2024-03-25T08:14:14;6.90;99.90
19085;DHT22;9675;51.538;6.728;2024-03-25T08:16:40;7.00;99.90
19085;DHT22;9675;51.538;6.728;2024-03-25T08:19:07;7.00;99.90
19085;DHT22;9675;51.538;6.728;2024-03-25T08:21:33;7.10;99.90
19085;DHT22;9675;51.538;6.728;2024-03-25T08:24:00;7.20;99.90
19085;DHT22;9675;51.538;6.728;2024-03-25T08:26:26;7.30;99.90
19085;DHT22;9675;51.538;6.728;2024-03-25T08:28:52;7.30;99.90
19085;DHT22;9675;51.538;6.728;2024-03-25T08:31:18;7.40;99.90
19085;DHT22;9675;51.538;6.728;2024-03-25T08:33:45;7.50;99.90
19085;DHT22;9675;51.538;6.728;2024-03-25T08:36:11;7.60;99.90
19085;DHT22;9675;51.538;6.728;2024-03-25T08:38:37;7.70;99.90
19085;DHT22;9675;51.538;6.728;2024-03-25T08:41:05;7.80;99.90
19085;DHT22;9675;51.538;6.728;2024-03-25T08:43:31;7.80;99.90
19085;DHT22;9675;51.538;6.728;2024-03-25T08:45:57;7.90;99.90
19085;DHT22;9675;51.538;6.728;2024-03-25T08:48:23;8.00;99.90
19085;DHT22;9675;51.538;6.728;2024-03-25T08:50:49;8.10;99.90
19085;DHT22;9675;51.538;6.728;2024-03-25T08:53:16;8.20;99.90
19085;DHT22;9675;51.538;6.728;2024-03-25T08:55:45;8.20;99.90
19085;DHT22;9675;51.538;6.728;2024-03-25T08:58:13;8.30;99.90
19085;DHT22;9675;51.538;6.728;2024-03-25T09:00:40;8.40;99.90
19085;DHT22;9675;51.538;6.728;2024-03-25T09:03:06;8.50;99.90
19085;DHT22;9675;51.538;6.728;2024-03-25T09:05:32;8.60;99.90
19085;DHT22;9675;51.538;6.728;2024-03-25T09:07:59;8.70;99.90
19085;DHT22;9675;51.538;6.728;2024-03-25T09:10:25;8.80;99.90
19085;DHT22;9675;51.538;6.728;2024-03-25T09:13:10;8.80;99.90
19085;DHT22;9675;51.538;6.728;2024-03-25T09:15:37;8.90;99.90
19085;DHT22;9675;51.538;6.728;2024-03-25T09:18:04;9.10;99.90
19085;DHT22;9675;51.538;6.728;2024-03-25T09:20:30;9.10;99.90
19085;DHT22;9675;51.538;6.728;2024-03-25T09:22:56;9.20;99.90
19085;DHT22;9675;51.538;6.728;2024-03-25T09:25:23;9.30;99.90
19085;DHT22;9675;51.538;6.728;2024-03-25T09:27:50;9.50;99.90
19085;DHT22;9675;51.538;6.728;2024-03-25T09:30:17;9.50;99.90
19085;DHT22;9675;51.538;6.728;2024-03-25T09:32:45;9.60;99.90
19085;DHT22;9675;51.538;6.728;2024-03-25T09:35:12;9.70;99.90
19085;DHT22;9675;51.538;6.728;2024-03-25T09:37:38;9.80;99.90
19085;DHT22;9675;51.538;6.728;2024-03-25T09:40:05;9.90;99.90
19085;DHT22;9675;51.538;6.728;2024-03-25T09:42:34;10.00;99.90
19085;DHT22;9675;51.538;6.728;2024-03-25T09:45:08;10.10;99.90
19085;DHT22;9675;51.538;6.728;2024-03-25T09:47:38;10.20;99.90
19085;DHT22;9675;51.538;6.728;2024-03-25T09:50:08;10.30;99.90
19085;DHT22;9675;51.538;6.728;2024-03-25T09:52:38;10.40;99.90
19085;DHT22;9675;51.538;6.728;2024-03-25T09:55:04;10.50;99.90
19085;DHT22;9675;51.538;6.728;2024-03-25T09:57:31;10.60;99.90
19085;DHT22;9675;51.538;6.728;2024-03-25T09:59:58;10.70;99.90
19085;DHT22;9675;51.538;6.728;2024-03-25T10:02:26;10.80;99.90
19085;DHT22;9675;51.538;6.728;2024-03-25T10:04:55;10.90;99.90
19085;DHT22;9675;51.538;6.728;2024-03-25T10:07:23;11.10;99.90
19085;DHT22;9675;51.538;6.728;2024-03-25T10:09:50;11.20;99.90
19085;DHT22;9675;51.538;6.728;2024-03-25T10:12:17;11.30;99.90
19085;DHT22;9675;51.538;6.728;2024-03-25T10:14:44;11.40;99.90
19085;DHT22;9675;51.538;6.728;2024-03-25T10:17:10;11.50;99.90
19085;DHT22;9675;51.538;6.728;2024-03-25T10:19:36;11.60;99.90
19085;DHT22;9675;51.538;6.728;2024-03-25T10:22:04;11.70;99.90
19085;DHT22;9675;51.538;6.728;2024-03-25T10:24:39;11.80;99.90
19085;DHT22;9675;51.538;6.728;2024-03-25T10:27:06;11.90;99.90
19085;DHT22;9675;51.538;6.728;2024-03-25T10:29:36;12.00;99.90
19085;DHT22;9675;51.538;6.728;2024-03-25T10:32:02;12.10;99.90
19085;DHT22;9675;51.538;6.728;2024-03-25T10:34:28;12.20;99.90
19085;DHT22;9675;51.538;6.728;2024-03-25T10:36:56;12.30;99.90
19085;DHT22;9675;51.538;6.728;2024-03-25T10:39:26;12.40;99.90
19085;DHT22;9675;51.538;6.728;2024-03-25T10:41:58;12.50;99.90
19085;DHT22;9675;51.538;6.728;2024-03-25T10:44:26;12.60;99.90
19085;DHT22;9675;51.538;6.728;2024-03-25T10:46:58;12.70;99.90
19085;DHT22;9675;51.538;6.728;2024-03-25T10:49:33;12.80;99.90
19085;DHT22;9675;51.538;6.728;2024-03-25T10:52:01;12.90;99.90
19085;DHT22;9675;51.538;6.728;2024-03-25T10:54:30;12.90;99.90
19085;DHT22;9675;51.538;6.728;2024-03-25T10:56:59;13.00;99.90
19085;DHT22;9675;51.538;6.728;2024-03-25T10:59:27;13.10;99.90
19085;DHT22;9675;51.538;6.728;2024-03-25T11:01:55;13.20;99.90
19085;DHT22;9675;51.538;6.728;2024-03-25T11:04:22;13.30;99.90
19085;DHT22;9675;51.538;6.728;2024-03-25T11:06:49;13.40;99.90
19085;DHT22;9675;51.538;6.728;2024-03-25T11:09:22;13.40;99.90
19085;DHT22;9675;51.538;6.728;2024-03-25T11:11:50;13.50;99.90
19085;DHT22;9675;51.538;6.728;2024-03-25T11:14:18;13.50;99.90
19085;DHT22;9675;51.538;6.728;2024-03-25T11:16:51;13.60;99.90
19085;DHT22;9675;51.538;6.728;2024-03-25T11:19:18;13.70;99.90
19085;DHT22;9675;51.538;6.728;2024-03-25T11:21:44;13.80;99.90
19085;DHT22;9675;51.538;6.728;2024-03-25T11:24:11;13.80;99.90
19085;DHT22;9675;51.538;6.728;2024-03-25T11:26:41;13.90;99.90
19085;DHT22;9675;51.538;6.728;2024-03-25T11:29:08;13.90;99.90
19085;DHT22;9675;51.538;6.728;2024-03-25T11:31:38;14.00;99.90
19085;DHT22;9675;51.538;6.728;2024-03-25T11:34:05;14.00;99.90
19085;DHT22;9675;51.538;6.728;2024-03-25T11:36:32;14.10;99.90
19085;DHT22;9675;51.538;6.728;2024-03-25T11:38:59;14.10;99.90
19085;DHT22;9675;51.538;6.728;2024-03-25T11:41:26;14.20;99.90
19085;DHT22;9675;51.538;6.728;2024-03-25T11:43:52;14.30;99.90
19085;DHT22;9675;51.538;6.728;2024-03-25T11:46:19;14.30;99.90
19085;DHT22;9675;51.538;6.728;2024-03-25T11:48:46;14.30;99.90
19085;DHT22;9675;51.538;6.728;2024-03-25T11:51:14;14.30;99.90
19085;DHT22;9675;51.538;6.728;2024-03-25T11:53:42;14.40;99.90
19085;DHT22;9675;51.538;6.728;2024-03-25T11:56:10;14.40;99.90
19085;DHT22;9675;51.538;6.728;2024-03-25T11:58:37;14.50;99.90
19085;DHT22;9675;51.538;6.728;2024-03-25T12:01:03;14.50;99.90
19085;DHT22;9675;51.538;6.728;2024-03-25T12:03:30;14.50;99.90
19085;DHT22;9675;51.538;6.728;2024-03-25T12:05:57;14.60;99.90
19085;DHT22;9675;51.538;6.728;2024-03-25T12:08:24;14.70;99.90
19085;DHT22;9675;51.538;6.728;2024-03-25T12:10:50;14.70;99.90
19085;DHT22;9675;51.538;6.728;2024-03-25T12:13:34;14.80;99.90
19085;DHT22;9675;51.538;6.728;2024-03-25T12:16:01;14.80;99.90
19085;DHT22;9675;51.538;6.728;2024-03-25T12:18:27;14.90;99.90
19085;DHT22;9675;51.538;6.728;2024-03-25T12:20:53;14.90;99.90
19085;DHT22;9675;51.538;6.728;2024-03-25T12:23:29;15.00;99.90
19085;DHT22;9675;51.538;6.728;2024-03-25T12:25:55;15.00;99.90
19085;DHT22;9675;51.538;6.728;2024-03-25T12:28:22;15.10;99.90
19085;DHT22;9675;51.538;6.728;2024-03-25T12:30:51;15.10;99.90
19085;DHT22;9675;51.538;6.728;2024-03-25T12:33:18;15.20;99.90
19085;DHT22;9675;51.538;6.728;2024-03-25T12:35:49;15.20;99.90
19085;DHT22;9675;51.538;6.728;2024-03-25T12:38:24;15.30;99.90
19085;DHT22;9675;51.538;6.728;2024-03-25T12:40:51;15.40;99.90
19085;DHT22;9675;51.538;6.728;2024-03-25T12:43:17;15.50;99.90
19085;DHT22;9675;51.538;6.728;2024-03-25T12:45:44;15.50;99.90
19085;DHT22;9675;51.538;6.728;2024-03-25T12:48:11;15.60;99.90
19085;DHT22;9675;51.538;6.728;2024-03-25T12:50:37;15.70;99.90
19085;DHT22;9675;51.538;6.728;2024-03-25T12:53:04;15.70;99.90
19085;DHT22;9675;51.538;6.728;2024-03-25T12:55:32;15.80;99.90
19085;DHT22;9675;51.538;6.728;2024-03-25T12:57:58;15.90;99.90
19085;DHT22;9675;51.538;6.728;2024-03-25T13:00:24;16.00;99.90
19085;DHT22;9675;51.538;6.728;2024-03-25T13:02:51;16.10;99.90
19085;DHT22;9675;51.538;6.728;2024-03-25T13:05:17;16.10;99.90
19085;DHT22;9675;51.538;6.728;2024-03-25T13:07:43;16.10;99.90
19085;DHT22;9675;51.538;6.728;2024-03-25T13:10:09;16.20;99.90
19085;DHT22;9675;51.538;6.728;2024-03-25T13:12:37;16.20;99.90
19085;DHT22;9675;51.538;6.728;2024-03-25T13:15:03;16.30;99.90
19085;DHT22;9675;51.538;6.728;2024-03-25T13:17:31;16.30;99.90
19085;DHT22;9675;51.538;6.728;2024-03-25T13:19:57;16.40;99.90
19085;DHT22;9675;51.538;6.728;2024-03-25T13:22:24;16.40;99.90
19085;DHT22;9675;51.538;6.728;2024-03-25T13:24:50;16.50;99.90
19085;DHT22;9675;51.538;6.728;2024-03-25T13:27:16;16.60;99.90
19085;DHT22;9675;51.538;6.728;2024-03-25T13:29:43;16.60;99.90
19085;DHT22;9675;51.538;6.728;2024-03-25T13:32:09;16.70;99.90
19085;DHT22;9675;51.538;6.728;2024-03-25T13:34:35;16.80;99.90
19085;DHT22;9675;51.538;6.728;2024-03-25T13:37:01;16.80;99.90
19085;DHT22;9675;51.538;6.728;2024-03-25T13:39:28;16.90;99.90
19085;DHT22;9675;51.538;6.728;2024-03-25T13:41:54;16.90;99.90
19085;DHT22;9675;51.538;6.728;2024-03-25T13:44:20;17.00;99.90
19085;DHT22;9675;51.538;6.728;2024-03-25T13:46:47;17.00;99.90
19085;DHT22;9675;51.538;6.728;2024-03-25T13:49:14;17.10;99.90
19085;DHT22;9675;51.538;6.728;2024-03-25T13:51:40;17.10;99.90
19085;DHT22;9675;51.538;6.728;2024-03-25T13:54:06;17.20;99.90
19085;DHT22;9675;51.538;6.728;2024-03-25T13:56:33;17.30;99.90
19085;DHT22;9675;51.538;6.728;2024-03-25T13:58:59;17.30;99.90
19085;DHT22;9675;51.538;6.728;2024-03-25T14:01:25;17.40;99.90
19085;DHT22;9675;51.538;6.728;2024-03-25T14:03:53;17.50;99.90
19085;DHT22;9675;51.538;6.728;2024-03-25T14:06:19;17.50;99.90
19085;DHT22;9675;51.538;6.728;2024-03-25T14:08:45;17.60;99.90
19085;DHT22;9675;51.538;6.728;2024-03-25T14:11:11;17.60;99.90
19085;DHT22;9675;51.538;6.728;2024-03-25T14:13:38;17.60;99.90
19085;DHT22;9675;51.538;6.728;2024-03-25T14:16:04;17.70;99.90
19085;DHT22;9675;51.538;6.728;2024-03-25T14:18:31;17.70;99.90
19085;DHT22;9675;51.538;6.728;2024-03-25T14:20:58;17.70;99.90
19085;DHT22;9675;51.538;6.728;2024-03-25T14:23:24;17.70;99.90
19085;DHT22;9675;51.538;6.728;2024-03-25T14:25:50;17.70;99.90
19085;DHT22;9675;51.538;6.728;2024-03-25T14:28:16;17.80;99.90
19085;DHT22;9675;51.538;6.728;2024-03-25T14:30:42;17.90;99.90
19085;DHT22;9675;51.538;6.728;2024-03-25T14:33:09;17.80;99.90
19085;DHT22;9675;51.538;6.728;2024-03-25T14:35:35;17.90;99.90
19085;DHT22;9675;51.538;6.728;2024-03-25T14:38:02;17.90;99.90
19085;DHT22;9675;51.538;6.728;2024-03-25T14:40:28;18.00;99.90
19085;DHT22;9675;51.538;6.728;2024-03-25T14:42:55;17.90;99.90
19085;DHT22;9675;51.538;6.728;2024-03-25T14:45:21;18.00;99.90
19085;DHT22;9675;51.538;6.728;2024-03-25T14:47:47;17.90;99.90
19085;DHT22;9675;51.538;6.728;2024-03-25T14:50:13;18.00;99.90
19085;DHT22;9675;51.538;6.728;2024-03-25T14:52:39;18.00;99.90
19085;DHT22;9675;51.538;6.728;2024-03-25T14:55:07;18.00;99.90
19085;DHT22;9675;51.538;6.728;2024-03-25T14:57:34;17.90;99.90
19085;DHT22;9675;51.538;6.728;2024-03-25T15:00:00;17.90;99.90
19085;DHT22;9675;51.538;6.728;2024-03-25T15:02:26;17.90;99.90
19085;DHT22;9675;51.538;6.728;2024-03-25T15:04:52;18.00;99.90
19085;DHT22;9675;51.538;6.728;2024-03-25T15:07:18;17.90;99.90
19085;DHT22;9675;51.538;6.728;2024-03-25T15:09:45;17.90;99.90
19085;DHT22;9675;51.538;6.728;2024-03-25T15:12:12;17.90;99.90
19085;DHT22;9675;51.538;6.728;2024-03-25T15:14:38;17.90;99.90
19085;DHT22;9675;51.538;6.728;2024-03-25T15:17:04;17.80;99.90
19085;DHT22;9675;51.538;6.728;2024-03-25T15:19:30;17.80;99.90
19085;DHT22;9675;51.538;6.728;2024-03-25T15:21:57;17.80;99.90
19085;DHT22;9675;51.538;6.728;2024-03-25T15:24:23;17.70;99.90
19085;DHT22;9675;51.538;6.728;2024-03-25T15:26:49;17.70;99.90
19085;DHT22;9675;51.538;6.728;2024-03-25T15:29:17;17.70;99.90
19085;DHT22;9675;51.538;6.728;2024-03-25T15:31:43;17.70;99.90
19085;DHT22;9675;51.538;6.728;2024-03-25T15:34:09;17.70;99.90
19085;DHT22;9675;51.538;6.728;2024-03-25T15:36:35;17.70;99.90
19085;DHT22;9675;51.538;6.728;2024-03-25T15:39:01;17.60;99.90
19085;DHT22;9675;51.538;6.728;2024-03-25T15:41:27;17.60;99.90
19085;DHT22;9675;51.538;6.728;2024-03-25T15:43:53;17.50;99.90
19085;DHT22;9675;51.538;6.728;2024-03-25T15:46:21;17.50;99.90
19085;DHT22;9675;51.538;6.728;2024-03-25T15:48:47;17.50;99.90
19085;DHT22;9675;51.538;6.728;2024-03-25T15:51:13;17.40;99.90
19085;DHT22;9675;51.538;6.728;2024-03-25T15:53:40;17.50;99.90